Terminal Aerodrome Forecast
Issued by NWS

Home | Current Version | Previous Version | Text Only | Print | Product List | Glossary On
Versions: 1 2 3 4 5 6 7 8 9 10 11 12
000
FTPA31 PHFO 301736
TAFHTO
TAF
PHTO 301736Z 3018/0118 24004KT P6SM VCSH SCT025 SCT060
     FM302100 01009KT P6SM VCSH SCT025 BKN045
     FM010500 24004KT P6SM VCSH SCT025 BKN035 OVC050
      TEMPO 0107/0111 4SM RA BKN025=

USA.gov is the U.S. government's official web portal to all federal, state and local government web resources and services.